Teaticket, Massachusetts
Current Conditions -  °F | °C
As of 1:15 PM on Thursday 27 Nov 2014 (Local Time) from KFMH Reporting Station
Overcast Overcast  
Wind Chill: 34°   Ceiling: 2700
Heat Index: 39°   Visibility: 10mi
Dew Point: 32°   Wind: 7mph
Humidity: 75%   Direction: 300°WNW
Pressure: 29.93"   Gusts: NA
Location:  41.6005°N, 70.5664°W
Report Text: KFMH 271815Z AUTO 30006KT 10SM OVC027 04/M00 A2993 RMK AO2
Loading
Personal Weather Stations






























Interactive Weather Map New forecast layout! Learn more

10-Day Weather Forecast

Advertisements
Track Severe Weather on mobile